map of KBV home
KBV - Airport
Location
City:  Krabi, Krabi, Thailand
ICAO:VTSG
IATA:KBV

Details
Type:Airport (Aerodrome, Airfield)
Use:Public/Civil
Latitude:805'45"N (8.095969)
Longitude:9859'20"E (98.988764)
Datum:WGS 1984
Elevation:93 ft (28 m)
Variation:0.37W (WMM2015 magnetic declination)
0.02 annual change
Runways:1
Longest:9850 × 148 ft (3002 × 45 m), paved

Time
Time Zone:UTC+7
Local Time:

Weather
METAR:VTSG 191400Z 04004KT 010V070 9000 FEW020 BKN100 25/24 Q1013 NOSIG
TAF:VTSG 191100Z 1912/2012 06006KT 8000 SCT020 BKN100
BECMG 1922/1924 3000 BR
BECMG 2000/2002 9999 NSW
TEMPO 2004/2010 08010G25KT 3000 TSRA FEW018CB FEW020 BKN100

Related Locations
Nearby:
Farthest:SPYO: 12335 mi / 19852 km
Pacasmayo [Pacasmayo Airport], LAL, PE

Find:

   beyond  
but within

Other Information
Maps:
NOTAMs:
Links:
Sources:

  
  • flag of Thailand
  

Sectional Chart

Flight Planning
at skyvector.com

Satellite Image

Google Maps Satellite view

 

Copyright © 2004-2018 Karl L. Swartz. All rights reserved.
The Great Circle Mapper name and logo are trademarks of the Great Circle Mapper.
All other trademarks mentioned herein belong to their respective owners.
Please see credits for attibutions and further copyright information.

  Follow gcmap on Facebook Follow gcmap on Twitter Follow gcmap on Google+ GCmap on LinkedIn

hCard Microformat

Geo Microformat